createdAt,value
2018-07-26T00:01:34.701Z,23.70
2018-07-26T00:03:36.832Z,23.70
2018-07-26T00:05:38.884Z,23.60
2018-07-26T00:07:40.990Z,23.60
2018-07-26T00:09:43.055Z,23.60
2018-07-26T00:11:45.131Z,23.60
2018-07-26T00:13:47.240Z,23.50
2018-07-26T00:15:49.340Z,23.50
2018-07-26T00:17:51.468Z,23.40
2018-07-26T00:19:53.561Z,23.40
2018-07-26T00:21:55.709Z,23.40
2018-07-26T00:23:57.786Z,23.40
2018-07-26T00:25:59.856Z,23.30
2018-07-26T00:28:01.945Z,23.40
2018-07-26T00:30:04.434Z,23.40
2018-07-26T00:32:06.548Z,23.40
2018-07-26T00:34:08.611Z,23.40
2018-07-26T00:36:10.712Z,23.40
2018-07-26T00:38:12.794Z,23.30
2018-07-26T00:40:14.853Z,23.30
2018-07-26T00:42:16.913Z,23.40
2018-07-26T00:44:19.245Z,23.30
2018-07-26T00:46:21.287Z,23.20
2018-07-26T00:50:54.652Z,23.10
2018-07-26T00:52:56.777Z,23.10
2018-07-26T00:54:58.850Z,23.10
2018-07-26T00:57:00.923Z,23.10
2018-07-26T00:59:02.999Z,23.10
2018-07-26T01:01:05.176Z,23.10
2018-07-26T01:03:07.274Z,23.10
2018-07-26T01:05:09.394Z,23.10
2018-07-26T01:07:11.452Z,23.10
2018-07-26T01:09:13.562Z,23.10
2018-07-26T01:11:15.647Z,23.00
2018-07-26T01:15:19.864Z,22.90
2018-07-26T01:17:21.964Z,22.80
2018-07-26T01:19:24.076Z,22.70
2018-07-26T01:21:26.159Z,22.70
2018-07-26T01:23:28.225Z,22.60
2018-07-26T01:25:30.279Z,22.50
2018-07-26T01:27:32.352Z,22.50
2018-07-26T01:29:34.424Z,22.30
2018-07-26T01:31:36.500Z,22.30
2018-07-26T01:33:38.568Z,22.40
2018-07-26T01:35:40.669Z,22.40
2018-07-26T01:37:42.744Z,22.50
2018-07-26T01:39:44.812Z,22.50
2018-07-26T01:41:46.898Z,22.50
2018-07-26T01:44:00.520Z,22.60
2018-07-26T01:46:02.597Z,22.60
2018-07-26T01:48:04.680Z,22.50
2018-07-26T01:50:06.771Z,22.50
2018-07-26T01:52:08.858Z,22.40
2018-07-26T01:54:10.943Z,22.30
2018-07-26T01:56:13.096Z,22.30
2018-07-26T01:58:15.196Z,22.10
2018-07-26T02:00:17.283Z,22.10
2018-07-26T02:02:19.401Z,22.10
2018-07-26T02:04:21.473Z,22.00
2018-07-26T02:06:23.583Z,22.00
2018-07-26T02:08:25.835Z,22.00
2018-07-26T02:10:27.907Z,22.00
2018-07-26T02:12:30.069Z,22.00
2018-07-26T02:14:33.145Z,21.90
2018-07-26T02:16:35.238Z,21.90
2018-07-26T02:18:37.325Z,22.00
2018-07-26T02:20:39.407Z,22.00
2018-07-26T02:22:41.505Z,21.90
2018-07-26T02:24:43.654Z,21.90
2018-07-26T02:26:45.772Z,21.70
2018-07-26T02:31:23.239Z,21.60
2018-07-26T02:33:28.840Z,21.60
2018-07-26T02:35:35.499Z,21.70
2018-07-26T02:37:47.865Z,21.70
2018-07-26T02:40:01.288Z,21.70
2018-07-26T02:42:15.418Z,21.70
2018-07-26T02:44:27.291Z,21.70
2018-07-26T02:46:39.097Z,21.70
2018-07-26T02:51:12.164Z,21.80
2018-07-26T02:53:34.904Z,21.80
2018-07-26T02:55:46.726Z,21.70
2018-07-26T02:58:11.365Z,21.60
2018-07-26T03:00:30.016Z,21.50
2018-07-26T03:02:42.201Z,21.50
2018-07-26T03:07:10.819Z,21.50
2018-07-26T03:09:26.599Z,21.40
2018-07-26T03:11:38.281Z,21.40
2018-07-26T03:14:41.610Z,21.30
2018-07-26T03:16:47.904Z,21.40
2018-07-26T03:18:56.057Z,21.30
2018-07-26T03:21:06.968Z,21.20
2018-07-26T03:23:12.904Z,21.10
2018-07-26T03:27:40.075Z,20.90
2018-07-26T03:29:47.246Z,20.90
2018-07-26T03:32:01.153Z,20.90
2018-07-26T03:34:14.405Z,20.90
2018-07-26T03:36:20.868Z,21.00
2018-07-26T03:38:29.382Z,21.00
2018-07-26T03:40:36.188Z,21.10
2018-07-26T03:42:45.259Z,21.10
2018-07-26T03:44:57.602Z,21.10
2018-07-26T03:47:02.788Z,21.10
2018-07-26T03:49:12.310Z,21.10
2018-07-26T03:51:23.833Z,21.10
2018-07-26T03:53:28.805Z,21.00
2018-07-26T03:55:38.065Z,21.00
2018-07-26T03:57:44.847Z,21.00
2018-07-26T03:59:49.119Z,21.00
2018-07-26T04:01:55.661Z,20.90
2018-07-26T04:04:01.711Z,21.00
2018-07-26T04:08:12.554Z,21.20
2018-07-26T04:10:17.412Z,21.20
2018-07-26T04:12:24.496Z,21.30
2018-07-26T04:14:31.052Z,21.30
2018-07-26T04:16:36.875Z,21.30
2018-07-26T04:18:44.549Z,21.30
2018-07-26T04:20:50.806Z,21.30
2018-07-26T04:22:59.798Z,21.40
2018-07-26T04:25:04.357Z,21.50
2018-07-26T04:27:09.797Z,21.50
2018-07-26T04:29:15.800Z,21.60
2018-07-26T04:31:19.708Z,21.60
2018-07-26T04:33:26.513Z,21.60
2018-07-26T04:35:30.380Z,21.70
2018-07-26T04:37:37.774Z,21.70
2018-07-26T04:39:41.837Z,21.70
2018-07-26T04:41:47.660Z,21.80
2018-07-26T04:43:52.686Z,21.80
2018-07-26T04:45:57.304Z,21.80
2018-07-26T04:48:04.067Z,21.80
2018-07-26T04:50:08.360Z,21.80
2018-07-26T04:52:12.871Z,21.80
2018-07-26T04:54:16.775Z,21.80
2018-07-26T04:56:21.458Z,21.80
2018-07-26T04:58:26.419Z,21.90
2018-07-26T05:00:33.974Z,21.90
2018-07-26T05:02:40.588Z,22.00
2018-07-26T05:04:44.812Z,22.00
2018-07-26T05:06:52.268Z,22.10
2018-07-26T05:08:56.262Z,22.20
2018-07-26T05:11:02.724Z,22.20
2018-07-26T05:13:10.744Z,22.30
2018-07-26T05:15:15.522Z,22.40
2018-07-26T05:17:23.502Z,22.50
2018-07-26T05:19:35.453Z,22.60
2018-07-26T05:21:42.012Z,22.60
2018-07-26T05:23:49.376Z,22.80
2018-07-26T05:25:52.338Z,22.90
2018-07-26T05:28:06.466Z,23.00
2018-07-26T05:30:12.869Z,23.10
2018-07-26T05:32:26.833Z,23.20
2018-07-26T05:34:30.875Z,23.20
2018-07-26T05:36:37.779Z,23.40
2018-07-26T05:38:41.886Z,23.50
2018-07-26T05:40:48.818Z,23.50
2018-07-26T05:42:53.274Z,23.60
2018-07-26T05:45:01.135Z,23.70
2018-07-26T05:47:06.580Z,23.90
2018-07-26T05:49:11.720Z,24.00
2018-07-26T05:51:26.352Z,24.10
2018-07-26T06:35:20.119Z,24.30
2018-07-26T06:40:02.795Z,26.20
2018-07-26T06:42:13.821Z,26.40
2018-07-26T06:44:23.430Z,26.50
2018-07-26T06:46:29.641Z,26.60
2018-07-26T06:48:42.981Z,26.70
2018-07-26T06:53:15.373Z,27.20
2018-07-26T06:55:22.362Z,27.40
2018-07-26T06:58:01.258Z,27.80
2018-07-26T07:02:40.820Z,28.00
2018-07-26T07:04:46.061Z,28.10
2018-07-26T07:07:11.051Z,28.40
2018-07-26T07:11:41.811Z,28.50
2018-07-26T07:16:21.708Z,28.50
2018-07-26T07:18:50.930Z,28.70
2018-07-26T07:30:18.894Z,29.10
2018-07-26T07:34:48.011Z,29.40
2018-07-26T07:39:29.968Z,29.90
2018-07-26T07:41:57.201Z,30.10
2018-07-26T07:44:59.800Z,30.10
2018-07-26T07:49:49.035Z,30.40
2018-07-26T07:52:09.022Z,30.60
2018-07-26T07:54:16.578Z,30.80
2018-07-26T07:56:38.476Z,30.70
2018-07-26T07:59:00.721Z,30.80
2018-07-26T08:01:30.230Z,30.70
2018-07-26T08:06:14.760Z,30.90
2018-07-26T08:08:30.412Z,31.20
2018-07-26T08:10:53.571Z,31.30
2018-07-26T08:13:06.659Z,31.30
2018-07-26T08:15:40.297Z,31.40
2018-07-26T08:21:04.148Z,31.80
2018-07-26T08:23:40.554Z,31.60
2018-07-26T08:25:53.061Z,31.60
2018-07-26T08:28:04.239Z,31.90
2018-07-26T08:30:33.063Z,31.80
2018-07-26T08:32:48.645Z,31.70
2018-07-26T08:44:54.792Z,31.70
2018-07-26T08:46:56.850Z,31.90
2018-07-26T08:48:58.876Z,32.00
2018-07-26T08:51:00.896Z,31.80
2018-07-26T08:53:02.920Z,32.10
2018-07-26T08:55:05.025Z,32.20
2018-07-26T08:57:07.068Z,32.30
2018-07-26T08:59:09.140Z,32.20
2018-07-26T09:01:11.220Z,32.60
2018-07-26T09:03:13.220Z,32.70
2018-07-26T09:05:15.625Z,32.90
2018-07-26T09:07:17.654Z,32.80
2018-07-26T09:09:19.678Z,32.60
2018-07-26T09:11:21.760Z,32.80
2018-07-26T09:13:23.872Z,33.20
2018-07-26T09:15:25.897Z,33.00
2018-07-26T09:17:27.922Z,33.30
2018-07-26T09:19:29.957Z,33.60
2018-07-26T09:21:32.009Z,33.30
2018-07-26T09:23:34.038Z,33.70
2018-07-26T09:25:36.121Z,33.90
2018-07-26T09:27:38.153Z,33.60
2018-07-26T09:29:40.395Z,33.50
2018-07-26T09:31:42.451Z,33.50
2018-07-26T09:33:44.484Z,33.90
2018-07-26T09:35:46.558Z,34.10
2018-07-26T09:37:48.632Z,34.10
2018-07-26T09:39:50.678Z,33.90
2018-07-26T09:41:52.729Z,33.90
2018-07-26T09:43:54.752Z,34.20
2018-07-26T09:45:56.780Z,34.40
2018-07-26T09:50:00.916Z,34.90
2018-07-26T09:52:02.944Z,34.80
2018-07-26T09:54:05.580Z,35.00
2018-07-26T09:56:07.617Z,34.90
2018-07-26T09:58:09.671Z,34.60
2018-07-26T10:00:16.260Z,35.30
2018-07-26T10:02:18.229Z,34.70
2018-07-26T10:04:20.263Z,34.40
2018-07-26T10:06:22.906Z,34.90
2018-07-26T10:08:24.941Z,34.60
2018-07-26T10:10:26.977Z,34.20
2018-07-26T10:12:29.034Z,34.40
2018-07-26T10:14:31.060Z,34.00
2018-07-26T10:16:33.111Z,34.60
2018-07-26T10:18:35.204Z,35.10
2018-07-26T10:20:37.220Z,35.20
2018-07-26T10:22:39.313Z,35.30
2018-07-26T10:24:41.440Z,34.30
2018-07-26T10:26:44.124Z,34.50
2018-07-26T10:28:46.212Z,34.90
2018-07-26T10:32:50.429Z,34.80
2018-07-26T10:34:58.742Z,34.20
2018-07-26T10:37:03.879Z,35.20
2018-07-26T10:39:08.809Z,34.90
2018-07-26T10:41:11.187Z,35.00
2018-07-26T10:45:18.759Z,35.70
2018-07-26T10:47:21.143Z,35.20
2018-07-26T10:49:24.151Z,35.40
2018-07-26T10:53:31.556Z,35.80
2018-07-26T10:55:33.773Z,35.70
2018-07-26T10:57:37.218Z,36.10
2018-07-26T10:59:40.964Z,36.20
2018-07-26T11:01:46.007Z,36.20
2018-07-26T11:06:00.214Z,36.90
2018-07-26T11:08:03.982Z,36.00
2018-07-26T11:10:10.685Z,36.30
2018-07-26T11:12:19.712Z,36.70
2018-07-26T11:14:27.679Z,36.10
2018-07-26T11:18:36.570Z,36.50
2018-07-26T11:20:40.111Z,36.50
2018-07-26T11:22:43.115Z,36.80
2018-07-26T11:24:52.861Z,36.80
2018-07-26T11:26:59.536Z,36.90
2018-07-26T11:29:03.047Z,37.00
2018-07-26T11:31:05.987Z,37.10
2018-07-26T11:33:08.409Z,36.60
2018-07-26T11:35:11.237Z,36.50
2018-07-26T11:37:13.517Z,36.60
2018-07-26T11:39:15.616Z,35.70
2018-07-26T11:41:17.820Z,36.20
2018-07-26T11:43:19.912Z,36.10
2018-07-26T11:45:22.116Z,35.80
2018-07-26T11:47:24.223Z,36.00
2018-07-26T11:49:26.382Z,35.70
2018-07-26T11:51:28.673Z,35.60
2018-07-26T11:53:31.147Z,36.40
2018-07-26T11:55:33.970Z,36.50
2018-07-26T11:57:36.105Z,36.40
2018-07-26T11:59:38.334Z,36.20
2018-07-26T12:01:40.534Z,35.40
2018-07-26T12:03:42.614Z,35.20
2018-07-26T12:05:44.680Z,35.40
2018-07-26T12:07:46.768Z,35.30
2018-07-26T12:09:48.889Z,35.20
2018-07-26T12:11:51.017Z,35.70
2018-07-26T12:13:53.402Z,36.10
2018-07-26T12:15:55.660Z,35.70
2018-07-26T12:17:57.865Z,36.20
2018-07-26T12:20:00.030Z,36.50
2018-07-26T12:22:02.189Z,36.20
2018-07-26T12:24:04.342Z,35.50
2018-07-26T12:26:06.636Z,35.00
2018-07-26T12:28:08.744Z,35.00
2018-07-26T12:30:10.837Z,36.00
2018-07-26T12:32:12.968Z,36.00
2018-07-26T12:34:15.210Z,35.60
2018-07-26T12:36:17.384Z,35.70
2018-07-26T12:38:19.660Z,35.80
2018-07-26T12:40:21.781Z,36.10
2018-07-26T12:42:23.908Z,36.20
2018-07-26T12:44:26.133Z,36.50
2018-07-26T12:46:28.245Z,36.60
2018-07-26T12:48:30.414Z,36.80
2018-07-26T12:50:32.529Z,36.70
2018-07-26T12:52:34.634Z,36.50
2018-07-26T12:54:36.713Z,36.60
2018-07-26T12:56:38.893Z,37.10
2018-07-26T12:58:41.044Z,36.30
2018-07-26T13:00:43.124Z,36.90
2018-07-26T13:02:45.333Z,37.10
2018-07-26T13:04:47.506Z,36.40
2018-07-26T13:06:49.612Z,37.00
2018-07-26T13:08:52.146Z,36.80
2018-07-26T13:10:54.274Z,36.90
2018-07-26T13:12:56.370Z,37.10
2018-07-26T13:14:58.773Z,36.90
2018-07-26T13:17:00.944Z,37.00
2018-07-26T13:19:03.090Z,37.00
2018-07-26T13:21:05.341Z,36.50
2018-07-26T13:23:07.444Z,36.90
2018-07-26T13:25:09.532Z,37.40
2018-07-26T13:27:11.725Z,37.30
2018-07-26T13:29:13.841Z,37.00
2018-07-26T13:31:15.985Z,37.00
2018-07-26T13:33:18.225Z,37.30
2018-07-26T13:35:20.317Z,37.20
2018-07-26T13:37:22.465Z,37.00
2018-07-26T13:39:24.618Z,37.20
2018-07-26T13:41:26.732Z,37.00
2018-07-26T13:43:28.885Z,37.40
2018-07-26T13:45:31.085Z,36.90
2018-07-26T13:47:33.200Z,36.60
2018-07-26T13:49:35.332Z,37.10
2018-07-26T13:51:37.432Z,36.70
2018-07-26T13:53:39.597Z,36.30
2018-07-26T13:55:41.680Z,36.20
2018-07-26T13:57:43.783Z,36.50
2018-07-26T13:59:45.892Z,35.50
2018-07-26T14:01:47.999Z,36.00
2018-07-26T14:03:50.251Z,36.20
2018-07-26T14:05:52.400Z,35.90
2018-07-26T14:07:54.587Z,36.00
2018-07-26T14:09:56.760Z,35.40
2018-07-26T14:11:58.849Z,36.30
2018-07-26T14:14:00.980Z,36.40
2018-07-26T14:16:03.167Z,35.60
2018-07-26T14:18:05.210Z,35.80
2018-07-26T14:20:09.074Z,35.90
2018-07-26T14:22:11.204Z,35.50
2018-07-26T14:24:18.945Z,35.70
2018-07-26T14:26:21.053Z,36.00
2018-07-26T14:28:23.246Z,36.10
2018-07-26T14:30:25.413Z,35.90
2018-07-26T14:32:27.540Z,36.30
2018-07-26T14:34:29.769Z,36.50
2018-07-26T14:36:31.914Z,36.10
2018-07-26T14:38:34.097Z,36.10
2018-07-26T14:40:36.261Z,36.00
2018-07-26T14:42:38.373Z,36.10
2018-07-26T16:00:50.716Z,31.30
2018-07-26T16:02:52.790Z,31.60
2018-07-26T16:04:54.852Z,31.80
2018-07-26T16:06:56.872Z,30.90
2018-07-26T16:08:58.881Z,31.80
2018-07-26T16:11:00.915Z,31.70
2018-07-26T16:13:02.944Z,31.90
2018-07-26T16:15:06.864Z,32.00
2018-07-26T16:17:08.871Z,32.10
2018-07-26T16:19:11.005Z,32.20
2018-07-26T16:21:13.032Z,32.20
2018-07-26T16:23:15.085Z,32.20
2018-07-26T16:25:21.764Z,32.20
2018-07-26T16:27:23.795Z,32.20
2018-07-26T16:29:25.875Z,32.30
2018-07-26T16:31:27.900Z,32.40
2018-07-26T16:33:29.956Z,32.40
2018-07-26T16:35:31.991Z,32.40
2018-07-26T16:37:34.032Z,32.50
2018-07-26T16:39:36.069Z,32.60
2018-07-26T16:41:38.109Z,32.60
2018-07-26T16:43:40.119Z,32.70
2018-07-26T16:45:42.128Z,32.70
2018-07-26T16:47:44.147Z,32.70
2018-07-26T16:49:46.144Z,32.70
2018-07-26T16:51:48.167Z,32.80
2018-07-26T16:53:50.200Z,32.80
2018-07-26T16:55:52.239Z,32.80
2018-07-26T16:57:54.252Z,32.80
2018-07-26T16:59:56.263Z,32.70
2018-07-26T17:01:58.299Z,32.70
2018-07-26T17:04:00.355Z,32.70
2018-07-26T17:06:02.317Z,32.70
2018-07-26T17:08:04.459Z,32.80
2018-07-26T17:10:07.181Z,32.80
2018-07-26T17:12:09.540Z,32.80
2018-07-26T17:14:11.580Z,32.80
2018-07-26T17:16:13.672Z,32.80
2018-07-26T17:18:15.719Z,32.80
2018-07-26T17:20:17.793Z,32.80
2018-07-26T17:22:19.859Z,32.80
2018-07-26T17:24:21.999Z,32.80
2018-07-26T17:26:24.106Z,32.60
2018-07-26T17:28:26.158Z,32.50
2018-07-26T17:30:28.217Z,32.40
2018-07-26T17:32:30.340Z,32.40
2018-07-26T17:34:32.363Z,32.30
2018-07-26T17:36:34.436Z,32.20
2018-07-26T17:38:36.479Z,32.20
2018-07-26T17:40:38.577Z,32.20
2018-07-26T17:42:40.588Z,32.20
2018-07-26T17:44:42.628Z,32.10
2018-07-26T17:46:44.670Z,32.10
2018-07-26T17:48:46.721Z,32.10
2018-07-26T17:50:48.758Z,32.00
2018-07-26T17:52:50.809Z,32.00
2018-07-26T17:54:52.915Z,32.00
2018-07-26T17:56:55.083Z,32.00
2018-07-26T17:58:57.088Z,31.90
2018-07-26T18:00:59.143Z,31.90
2018-07-26T18:03:01.200Z,31.90
2018-07-26T18:05:03.745Z,31.90
2018-07-26T18:07:06.149Z,31.80
2018-07-26T18:09:09.283Z,31.80
2018-07-26T18:11:11.448Z,31.70
2018-07-26T18:13:13.528Z,31.60
2018-07-26T18:15:15.790Z,31.60
2018-07-26T18:17:18.906Z,31.50
2018-07-26T18:19:22.052Z,31.50
2018-07-26T18:21:24.224Z,31.40
2018-07-26T18:23:26.499Z,31.30
2018-07-26T18:25:28.830Z,31.30
2018-07-26T18:27:31.103Z,31.30
2018-07-26T18:29:33.207Z,31.20
2018-07-26T18:31:35.403Z,31.10
2018-07-26T18:33:37.673Z,31.00
2018-07-26T18:35:39.753Z,31.00
2018-07-26T18:37:41.845Z,31.00
2018-07-26T18:39:43.907Z,30.90
2018-07-26T18:41:45.977Z,30.80
2018-07-26T18:43:48.053Z,30.80
2018-07-26T18:45:50.251Z,30.80
2018-07-26T18:47:52.414Z,30.70
2018-07-26T18:49:55.238Z,30.70
2018-07-26T18:51:57.364Z,30.60
2018-07-26T18:54:00.415Z,30.60
2018-07-26T18:56:02.990Z,30.60
2018-07-26T18:58:05.336Z,30.60
2018-07-26T19:00:10.621Z,30.50
2018-07-26T19:02:13.186Z,30.40
2018-07-26T19:04:15.496Z,30.40
2018-07-26T19:06:17.675Z,30.30
2018-07-26T19:08:19.752Z,30.20
2018-07-26T19:10:21.965Z,30.20
2018-07-26T19:12:24.091Z,30.10
2018-07-26T19:14:26.180Z,30.00
2018-07-26T19:16:28.402Z,30.00
2018-07-26T19:18:30.549Z,29.90
2018-07-26T19:20:32.689Z,29.80
2018-07-26T19:24:37.335Z,29.80
2018-07-26T19:26:39.531Z,29.70
2018-07-26T19:28:41.606Z,29.70
2018-07-26T19:30:44.019Z,29.70
2018-07-26T19:32:46.140Z,29.60
2018-07-26T19:34:48.236Z,29.60
2018-07-26T19:36:50.444Z,29.50
2018-07-26T19:38:52.536Z,29.40
2018-07-26T19:40:54.624Z,29.40
2018-07-26T19:42:56.937Z,29.30
2018-07-26T19:44:59.200Z,29.20
2018-07-26T19:47:01.485Z,29.20
2018-07-26T19:49:03.798Z,29.10
2018-07-26T19:53:08.329Z,29.00
2018-07-26T19:55:11.333Z,29.00
2018-07-26T19:59:16.112Z,28.90
2018-07-26T20:01:18.264Z,28.90
2018-07-26T20:03:20.437Z,28.90
2018-07-26T20:05:23.204Z,28.80
2018-07-26T20:07:26.697Z,28.80
2018-07-26T20:09:29.130Z,28.80
2018-07-26T20:11:31.601Z,28.70
2018-07-26T20:13:34.099Z,28.70
2018-07-26T20:15:36.269Z,28.70
2018-07-26T20:17:38.528Z,28.70
2018-07-26T20:19:40.861Z,28.70
2018-07-26T20:23:45.333Z,28.70
2018-07-26T20:33:35.364Z,28.60
2018-07-26T20:35:37.408Z,28.60
2018-07-26T20:37:39.440Z,28.60
2018-07-26T20:42:09.657Z,28.60
2018-07-26T20:44:11.805Z,28.60
2018-07-26T20:46:13.854Z,28.60
2018-07-26T20:48:15.966Z,28.60
2018-07-26T20:50:17.987Z,28.60
2018-07-26T20:54:22.388Z,28.60
2018-07-26T20:56:24.660Z,28.70
2018-07-26T20:58:26.753Z,28.60
2018-07-26T21:00:29.277Z,28.70
2018-07-26T21:02:31.365Z,28.70
2018-07-26T21:04:33.418Z,28.70
2018-07-26T21:06:35.464Z,28.70
2018-07-26T21:08:37.506Z,28.70
2018-07-26T21:10:39.552Z,28.70
2018-07-26T21:12:41.618Z,28.80
2018-07-26T21:14:43.718Z,28.80
2018-07-26T21:16:45.767Z,28.80
2018-07-26T21:18:47.835Z,28.70
2018-07-26T21:20:49.942Z,28.70
2018-07-26T21:22:51.993Z,28.70
2018-07-26T21:24:54.124Z,28.60
2018-07-26T21:26:56.213Z,28.60
2018-07-26T21:28:58.324Z,28.60
2018-07-26T21:31:00.368Z,28.50
2018-07-26T21:33:02.421Z,28.50
2018-07-26T21:35:05.402Z,28.50
2018-07-26T21:37:07.454Z,28.40
2018-07-26T21:39:10.565Z,28.30
2018-07-26T21:41:12.792Z,28.30
2018-07-26T21:43:15.325Z,28.30
2018-07-26T21:45:17.365Z,28.20
2018-07-26T21:47:19.413Z,28.20
2018-07-26T21:49:21.514Z,28.10
2018-07-26T21:51:23.584Z,28.10
2018-07-26T21:53:25.672Z,28.00
2018-07-26T21:57:29.877Z,27.90
2018-07-26T21:59:31.921Z,27.90
2018-07-26T22:01:33.951Z,27.90
2018-07-26T23:17:00.766Z,26.60
2018-07-26T23:19:02.880Z,26.50
2018-07-26T23:21:05.033Z,26.50
2018-07-26T23:23:07.107Z,26.50
2018-07-26T23:32:57.741Z,26.40
2018-07-26T23:34:59.815Z,26.40
2018-07-26T23:37:01.882Z,26.30
2018-07-26T23:39:06.364Z,26.30
2018-07-26T23:41:08.404Z,26.30
2018-07-26T23:43:10.465Z,26.20
2018-07-26T23:45:12.553Z,26.20
2018-07-26T23:47:14.600Z,26.20
2018-07-26T23:49:16.647Z,26.10
2018-07-26T23:51:18.802Z,26.10
2018-07-26T23:53:20.886Z,26.00
2018-07-26T23:55:22.964Z,25.90
2018-07-26T23:57:25.021Z,25.90
2018-07-26T23:59:27.082Z,25.90
